createdAt,value
2019-05-20T00:00:57.139Z,11
2019-05-20T00:05:59.725Z,11
2019-05-20T00:11:02.070Z,10
2019-05-20T00:16:04.496Z,10
2019-05-20T00:21:06.910Z,10
2019-05-20T00:26:09.378Z,10
2019-05-20T00:31:11.815Z,9
2019-05-20T00:36:14.302Z,10
2019-05-20T00:41:16.658Z,10
2019-05-20T00:46:19.133Z,10
2019-05-20T00:51:21.614Z,10
2019-05-20T00:56:23.986Z,11
2019-05-20T01:01:26.462Z,10
2019-05-20T01:11:31.298Z,10
2019-05-20T01:16:33.739Z,11
2019-05-20T01:21:36.190Z,11
2019-05-20T01:26:38.630Z,10
2019-05-20T01:31:41.089Z,10
2019-05-20T01:36:43.512Z,10
2019-05-20T01:41:45.939Z,11
2019-05-20T01:46:48.399Z,11
2019-05-20T01:51:50.817Z,11
2019-05-20T01:56:53.264Z,11
2019-05-20T02:01:55.696Z,11
2019-05-20T02:06:58.162Z,11
2019-05-20T02:12:00.570Z,11
2019-05-20T02:17:03.025Z,11
2019-05-20T02:22:05.483Z,13
2019-05-20T02:27:07.978Z,11
2019-05-20T02:32:10.362Z,11
2019-05-20T02:37:12.797Z,10
2019-05-20T02:42:15.236Z,11
2019-05-20T02:47:17.659Z,11
2019-05-20T02:52:20.182Z,12
2019-05-20T02:57:22.742Z,11
2019-05-20T03:02:25.022Z,12
2019-05-20T03:07:27.424Z,12
2019-05-20T03:12:29.885Z,13
2019-05-20T03:17:32.318Z,12
2019-05-20T03:22:34.766Z,13
2019-05-20T03:27:37.197Z,11
2019-05-20T03:32:39.647Z,13
2019-05-20T03:37:42.069Z,12
2019-05-20T03:42:44.520Z,11
2019-05-20T03:47:46.957Z,10
2019-05-20T03:52:49.418Z,10
2019-05-20T03:57:51.839Z,12
2019-05-20T04:02:54.283Z,11
2019-05-20T04:07:56.746Z,12
2019-05-20T04:12:59.149Z,15
2019-05-20T04:18:01.659Z,18
2019-05-20T04:23:04.039Z,14
2019-05-20T04:28:06.579Z,14
2019-05-20T04:33:08.980Z,14
2019-05-20T04:38:11.387Z,15
2019-05-20T04:43:13.922Z,15
2019-05-20T04:48:16.250Z,15
2019-05-20T04:53:18.726Z,15
2019-05-20T04:58:21.159Z,15
2019-05-20T05:03:23.681Z,15
2019-05-20T05:08:26.023Z,15
2019-05-20T05:13:28.521Z,16
2019-05-20T05:18:30.887Z,15
2019-05-20T05:23:33.334Z,16
2019-05-20T05:28:35.783Z,16
2019-05-20T05:33:38.358Z,16
2019-05-20T05:38:40.686Z,16
2019-05-20T05:43:43.175Z,16
2019-05-20T05:48:45.516Z,18
2019-05-20T05:53:47.978Z,15
2019-05-20T05:58:50.417Z,16
2019-05-20T06:03:52.862Z,20
2019-05-20T06:08:55.289Z,18
2019-05-20T06:13:57.810Z,14
2019-05-20T06:19:00.221Z,15
2019-05-20T06:24:02.615Z,14
2019-05-20T06:29:05.060Z,14
2019-05-20T06:34:07.521Z,12
2019-05-20T06:39:09.945Z,11
2019-05-20T06:44:12.420Z,11
2019-05-20T06:49:14.838Z,12
2019-05-20T06:54:17.271Z,12
2019-05-20T06:59:19.720Z,13
2019-05-20T07:04:22.158Z,12
2019-05-20T07:09:24.608Z,13
2019-05-20T07:19:29.491Z,14
2019-05-20T07:24:31.906Z,14
2019-05-20T07:29:34.617Z,12
2019-05-20T07:34:36.906Z,14
2019-05-20T07:39:39.213Z,13
2019-05-20T07:44:41.668Z,12
2019-05-20T07:49:44.115Z,13
2019-05-20T07:54:46.555Z,13
2019-05-20T07:59:48.991Z,13
2019-05-20T08:04:51.532Z,14
2019-05-20T08:09:53.879Z,13
2019-05-20T08:14:56.314Z,14
2019-05-20T08:19:58.744Z,14
2019-05-20T08:25:01.202Z,14
2019-05-20T08:30:03.809Z,13
2019-05-20T08:35:06.223Z,14
2019-05-20T08:40:08.522Z,12
2019-05-20T08:45:10.969Z,12
2019-05-20T08:50:16.048Z,12
2019-05-20T08:55:15.934Z,12
2019-05-20T09:00:23.183Z,12
2019-05-20T09:05:20.718Z,12
2019-05-20T09:10:23.176Z,11
2019-05-20T09:15:25.663Z,13
2019-05-20T09:20:28.051Z,13
2019-05-20T09:25:30.491Z,13
2019-05-20T09:30:32.923Z,14
2019-05-20T09:35:35.365Z,14
2019-05-20T09:40:37.829Z,15
2019-05-20T09:45:40.287Z,15
2019-05-20T09:50:42.687Z,16
2019-05-20T09:55:45.216Z,15
2019-05-20T10:00:47.612Z,15
2019-05-20T10:05:50.058Z,15
2019-05-20T10:10:52.465Z,16
2019-05-20T10:15:54.892Z,16
2019-05-20T10:20:57.463Z,16
2019-05-20T10:25:59.779Z,15
2019-05-20T10:31:02.271Z,16
2019-05-20T10:36:04.673Z,16
2019-05-20T10:41:07.089Z,17
2019-05-20T10:46:09.533Z,17
2019-05-20T10:51:12.049Z,18
2019-05-20T10:56:14.681Z,17
2019-05-20T11:01:16.904Z,19
2019-05-20T11:06:19.314Z,18
2019-05-20T11:11:21.792Z,18
2019-05-20T11:16:24.183Z,19
2019-05-20T11:21:26.633Z,19
2019-05-20T11:26:29.071Z,19
2019-05-20T11:31:31.503Z,20
2019-05-20T11:36:33.938Z,21
2019-05-20T11:41:53.625Z,21
2019-05-20T11:46:38.843Z,19
2019-05-20T11:51:41.272Z,20
2019-05-20T11:56:43.750Z,20
2019-05-20T12:01:46.147Z,21
2019-05-20T12:06:48.659Z,20
2019-05-20T12:11:51.172Z,21
2019-05-20T12:16:53.463Z,21
2019-05-20T12:21:55.916Z,21
2019-05-20T12:26:58.414Z,22
2019-05-20T12:32:03.416Z,22
2019-05-20T12:37:03.261Z,25
2019-05-20T12:42:05.696Z,24
2019-05-20T12:47:08.392Z,23
2019-05-20T12:52:10.640Z,23
2019-05-20T12:57:13.012Z,24
2019-05-20T13:02:17.355Z,24
2019-05-20T13:07:17.867Z,25
2019-05-20T13:12:20.318Z,25
2019-05-20T13:17:22.842Z,26
2019-05-20T13:22:25.206Z,24
2019-05-20T13:27:27.645Z,24
2019-05-20T13:32:30.082Z,24
2019-05-20T13:37:32.561Z,30
2019-05-20T13:42:34.965Z,31
2019-05-20T13:47:37.396Z,26
2019-05-20T13:52:39.849Z,27
2019-05-20T13:57:42.347Z,28
2019-05-20T14:02:44.843Z,26
2019-05-20T14:07:47.178Z,25
2019-05-20T14:12:49.704Z,24
2019-05-20T14:17:52.196Z,25
2019-05-20T14:22:54.548Z,25
2019-05-20T14:27:56.960Z,25
2019-05-20T14:32:59.380Z,23
2019-05-20T14:43:04.248Z,6
2019-05-20T14:48:07.040Z,4
2019-05-20T14:53:09.183Z,3
2019-05-20T14:58:11.572Z,3
2019-05-20T15:03:14.028Z,1
2019-05-20T15:08:16.455Z,1
2019-05-20T15:13:18.944Z,2
2019-05-20T15:18:21.350Z,2
2019-05-20T15:23:23.858Z,2
2019-05-20T15:28:26.250Z,3
2019-05-20T15:33:28.724Z,3
2019-05-20T15:38:31.130Z,3
2019-05-20T15:43:33.558Z,3
2019-05-20T15:48:36.037Z,3
2019-05-20T15:53:38.409Z,3
2019-05-20T15:58:40.861Z,3
2019-05-20T16:03:43.301Z,2
2019-05-20T16:08:45.789Z,2
2019-05-20T16:13:48.187Z,1
2019-05-20T16:18:50.626Z,1
2019-05-20T16:23:53.095Z,2
2019-05-20T16:28:55.513Z,2
2019-05-20T16:33:59.561Z,2
2019-05-20T16:39:00.438Z,1
2019-05-20T16:44:02.878Z,1
2019-05-20T16:49:05.357Z,0
2019-05-20T16:54:07.770Z,1
2019-05-20T16:59:10.172Z,0
2019-05-20T17:04:12.600Z,1
2019-05-20T17:09:15.022Z,1
2019-05-20T17:14:17.497Z,1
2019-05-20T17:19:19.928Z,0
2019-05-20T17:24:23.296Z,0
2019-05-20T17:29:24.837Z,1
2019-05-20T17:34:27.238Z,1
2019-05-20T17:39:29.697Z,1
2019-05-20T17:44:32.253Z,1
2019-05-20T17:49:34.574Z,1
2019-05-20T17:54:37.010Z,1
2019-05-20T17:59:39.449Z,1
2019-05-20T18:04:41.877Z,1
2019-05-20T18:09:44.403Z,1
2019-05-20T18:14:46.803Z,3
2019-05-20T18:19:49.301Z,2
2019-05-20T18:24:51.761Z,1
2019-05-20T18:29:54.379Z,1
2019-05-20T18:34:56.560Z,2
2019-05-20T18:40:12.702Z,2
2019-05-20T18:45:01.429Z,2
2019-05-20T18:50:03.866Z,2
2019-05-20T18:55:06.309Z,2
2019-05-20T19:00:08.735Z,3
2019-05-20T19:05:11.181Z,3
2019-05-20T19:10:13.714Z,3
2019-05-20T19:15:16.067Z,3
2019-05-20T19:20:18.505Z,3
2019-05-20T19:25:20.949Z,3
2019-05-20T19:30:23.454Z,4
2019-05-20T19:35:26.464Z,3
2019-05-20T19:40:28.343Z,3
2019-05-20T19:45:30.731Z,3
2019-05-20T19:50:33.136Z,4
2019-05-20T19:55:35.589Z,4
2019-05-20T20:00:38.035Z,4
2019-05-20T20:05:40.473Z,4
2019-05-20T20:10:42.904Z,3
2019-05-20T20:15:45.359Z,5
2019-05-20T20:20:48.102Z,4
2019-05-20T20:25:50.269Z,4
2019-05-20T20:30:52.730Z,5
2019-05-20T20:35:55.097Z,6
2019-05-20T20:40:57.534Z,5
2019-05-20T20:45:59.972Z,6
2019-05-20T20:51:02.458Z,6
2019-05-20T20:56:04.866Z,6
2019-05-20T21:01:07.304Z,6
2019-05-20T21:06:09.734Z,8
2019-05-20T21:11:12.172Z,10
2019-05-20T21:16:14.625Z,11
2019-05-20T21:21:17.232Z,10
2019-05-20T21:26:19.494Z,10
2019-05-20T21:31:21.939Z,10
2019-05-20T21:36:24.375Z,11
2019-05-20T21:41:26.853Z,10
2019-05-20T21:46:29.266Z,9
2019-05-20T21:51:31.725Z,10
2019-05-20T21:56:34.145Z,10
2019-05-20T22:01:36.633Z,11
2019-05-20T22:06:39.316Z,9
2019-05-20T22:11:41.468Z,12
2019-05-20T22:16:43.933Z,16
2019-05-20T22:21:46.361Z,14
2019-05-20T22:26:48.795Z,16
2019-05-20T22:31:51.242Z,17
2019-05-20T22:36:53.696Z,19
2019-05-20T22:41:56.105Z,19
2019-05-20T22:46:58.545Z,19
2019-05-20T22:52:01.045Z,19
2019-05-20T22:57:03.467Z,20
2019-05-20T23:02:05.979Z,19
2019-05-20T23:07:08.356Z,16
2019-05-20T23:12:11.006Z,17
2019-05-20T23:17:13.198Z,17
2019-05-20T23:22:15.666Z,17
2019-05-20T23:27:18.088Z,15
2019-05-20T23:32:20.543Z,18
2019-05-20T23:37:22.996Z,18
2019-05-20T23:42:25.417Z,17
2019-05-20T23:47:27.835Z,18
2019-05-20T23:52:30.268Z,18
2019-05-20T23:57:32.735Z,18
